Blum Robert I, director officer (President of CYTK - Past Performance as of 10/23/18. Total 209 Records. Link to Thomson Financial
Buy(P) /
Sell(S)
P/S date Filed Date Company Symbol Insider Relationship Share Amt. Unit Price Total Proceeds Shares Owned Return(1m) Details
S 2018-10-05 2018-10-05 19:24:06.0 CYTOKINETICS INC CYTK Blum Robert I director officer (President & CEO) 4,000 $8.79 $35,178.00 160,022 view
S 2018-09-05 2018-09-07 16:13:27.0 CYTOKINETICS INC CYTK Blum Robert I director officer (President & CEO) 4,000 $7.94 $31,768.80 164,022 view
S 2018-08-03 2018-08-03 17:22:33.0 CYTOKINETICS INC CYTK Blum Robert I director officer (President & CEO) 4,000 $6.65 $26,582.40 168,022 view
S 2018-07-05 2018-07-06 16:34:30.0 CYTOKINETICS INC CYTK Blum Robert I director officer (President & CEO) 4,000 $9.09 $36,372.40 172,022 view
S 2018-06-05 2018-06-05 18:12:13.0 CYTOKINETICS INC CYTK Blum Robert I director officer (President & CEO) 4,000 $8.28 $33,116.40 176,022 view
S 2018-05-04 2018-05-04 18:09:27.0 CYTOKINETICS INC CYTK Blum Robert I director officer (President & CEO) 300 $8.30 $2,490.00 183,722 view
S 2018-05-04 2018-05-04 18:09:27.0 CYTOKINETICS INC CYTK Blum Robert I director officer (President & CEO) 400 $8.35 $3,340.00 183,322 view
S 2018-05-04 2018-05-04 18:09:27.0 CYTOKINETICS INC CYTK Blum Robert I director officer (President & CEO) 1,800 $8.38 $15,075.00 181,522 view
S 2018-05-04 2018-05-04 18:09:27.0 CYTOKINETICS INC CYTK Blum Robert I director officer (President & CEO) 1,500 $8.40 $12,600.00 180,022 view
S 2018-04-05 2018-04-06 18:01:44.0 CYTOKINETICS INC CYTK Blum Robert I director officer (President & CEO) 4,000 $7.52 $30,090.40 182,701 view
S 2017-11-01 2017-11-03 20:27:11.0 CYTOKINETICS INC CYTK Blum Robert I director officer (President & CEO) 500 $13.10 $6,550.00 70,180 view
S 2017-11-01 2017-11-03 20:27:11.0 CYTOKINETICS INC CYTK Blum Robert I director officer (President & CEO) 100 $13.15 $1,315.00 70,080 view
S 2017-11-01 2017-11-03 20:27:11.0 CYTOKINETICS INC CYTK Blum Robert I director officer (President & CEO) 200 $13.38 $2,675.00 69,880 view
S 2017-11-01 2017-11-03 20:27:11.0 CYTOKINETICS INC CYTK Blum Robert I director officer (President & CEO) 1,100 $13.40 $14,740.00 68,780 view
S 2017-11-01 2017-11-03 20:27:11.0 CYTOKINETICS INC CYTK Blum Robert I director officer (President & CEO) 100 $13.43 $1,342.50 68,680 view
S 2017-11-01 2017-11-03 20:27:11.0 CYTOKINETICS INC CYTK Blum Robert I director officer (President & CEO) 200 $13.55 $2,710.00 68,480 view
S 2017-11-01 2017-11-03 20:27:11.0 CYTOKINETICS INC CYTK Blum Robert I director officer (President & CEO) 100 $13.57 $1,357.50 68,380 view
S 2017-11-01 2017-11-03 20:27:11.0 CYTOKINETICS INC CYTK Blum Robert I director officer (President & CEO) 1 $13.58 $13.58 68,379 view
S 2017-11-01 2017-11-03 20:27:11.0 CYTOKINETICS INC CYTK Blum Robert I director officer (President & CEO) 1,000 $13.60 $13,600.00 67,379 view
S 2017-11-01 2017-11-03 20:27:11.0 CYTOKINETICS INC CYTK Blum Robert I director officer (President & CEO) 1,000 $13.65 $13,650.00 66,379 view
S 2017-11-01 2017-11-03 20:27:11.0 CYTOKINETICS INC CYTK Blum Robert I director officer (President & CEO) 100 $13.68 $1,367.50 66,279 view
S 2017-11-01 2017-11-03 20:27:11.0 CYTOKINETICS INC CYTK Blum Robert I director officer (President & CEO) 347 $13.70 $4,753.90 65,932 view
S 2017-11-01 2017-11-03 20:27:11.0 CYTOKINETICS INC CYTK Blum Robert I director officer (President & CEO) 252 $13.80 $3,477.60 65,680 view
S 2017-10-02 2017-10-04 18:54:11.0 CYTOKINETICS INC CYTK Blum Robert I director officer (President & CEO) 300 $14.40 $4,320.00 74,585 view
S 2017-10-02 2017-10-04 18:54:11.0 CYTOKINETICS INC CYTK Blum Robert I director officer (President & CEO) 700 $14.45 $10,115.00 73,885 view
S 2017-10-02 2017-10-04 18:54:11.0 CYTOKINETICS INC CYTK Blum Robert I director officer (President & CEO) 810 $14.55 $11,785.50 73,075 view
S 2017-10-02 2017-10-04 18:54:11.0 CYTOKINETICS INC CYTK Blum Robert I director officer (President & CEO) 100 $14.60 $1,460.00 72,975 view
S 2017-10-02 2017-10-04 18:54:11.0 CYTOKINETICS INC CYTK Blum Robert I director officer (President & CEO) 2,790 $14.65 $40,873.50 70,185 view
S 2017-10-02 2017-10-04 18:54:11.0 CYTOKINETICS INC CYTK Blum Robert I director officer (President & CEO) 300 $14.68 $4,402.50 69,885 view
S 2017-09-01 2017-09-01 19:21:53.0 CYTOKINETICS INC CYTK Blum Robert I director officer (President & CEO) 100 $14.55 $1,455.00 79,785 view
S 2017-09-01 2017-09-01 19:21:53.0 CYTOKINETICS INC CYTK Blum Robert I director officer (President & CEO) 400 $14.60 $5,840.00 79,385 view
S 2017-09-01 2017-09-01 19:21:53.0 CYTOKINETICS INC CYTK Blum Robert I director officer (President & CEO) 100 $14.62 $1,462.50 79,285 view
S 2017-09-01 2017-09-01 19:21:53.0 CYTOKINETICS INC CYTK Blum Robert I director officer (President & CEO) 1,200 $14.65 $17,580.00 78,085 view
S 2017-09-01 2017-09-01 19:21:53.0 CYTOKINETICS INC CYTK Blum Robert I director officer (President & CEO) 800 $14.68 $11,740.00 77,285 view
S 2017-09-01 2017-09-01 19:21:53.0 CYTOKINETICS INC CYTK Blum Robert I director officer (President & CEO) 1,300 $14.70 $19,110.00 75,985 view
S 2017-09-01 2017-09-01 19:21:53.0 CYTOKINETICS INC CYTK Blum Robert I director officer (President & CEO) 300 $14.73 $4,417.50 75,685 view
S 2017-09-01 2017-09-01 19:21:53.0 CYTOKINETICS INC CYTK Blum Robert I director officer (President & CEO) 100 $14.75 $1,475.00 75,585 view
S 2017-09-01 2017-09-01 19:21:53.0 CYTOKINETICS INC CYTK Blum Robert I director officer (President & CEO) 200 $14.80 $2,960.00 75,385 view
S 2017-09-01 2017-09-01 19:21:53.0 CYTOKINETICS INC CYTK Blum Robert I director officer (President & CEO) 400 $14.90 $5,960.00 74,985 view
S 2017-09-01 2017-09-01 19:21:53.0 CYTOKINETICS INC CYTK Blum Robert I director officer (President & CEO) 100 $15.27 $1,527.50 74,885 view
S 2017-08-01 2017-08-02 19:46:59.0 CYTOKINETICS INC CYTK Blum Robert I director officer (President & CEO) 100 $13.55 $1,355.00 84,785 view
S 2017-08-01 2017-08-02 19:46:59.0 CYTOKINETICS INC CYTK Blum Robert I director officer (President & CEO) 100 $13.60 $1,360.00 84,685 view
S 2017-08-01 2017-08-02 19:46:59.0 CYTOKINETICS INC CYTK Blum Robert I director officer (President & CEO) 500 $13.65 $6,825.00 84,185 view
S 2017-08-01 2017-08-02 19:46:59.0 CYTOKINETICS INC CYTK Blum Robert I director officer (President & CEO) 100 $13.68 $1,367.50 84,085 view
S 2017-08-01 2017-08-02 19:46:59.0 CYTOKINETICS INC CYTK Blum Robert I director officer (President & CEO) 900 $13.70 $12,330.00 83,185 view
S 2017-08-01 2017-08-02 19:46:59.0 CYTOKINETICS INC CYTK Blum Robert I director officer (President & CEO) 300 $13.75 $4,125.00 82,885 view
S 2017-08-01 2017-08-02 19:46:59.0 CYTOKINETICS INC CYTK Blum Robert I director officer (President & CEO) 1,123 $13.80 $15,497.40 81,762 view
S 2017-08-01 2017-08-02 19:46:59.0 CYTOKINETICS INC CYTK Blum Robert I director officer (President & CEO) 100 $13.82 $1,382.50 81,662 view
S 2017-08-01 2017-08-02 19:46:59.0 CYTOKINETICS INC CYTK Blum Robert I director officer (President & CEO) 695 $13.85 $9,625.75 80,967 view
S 2017-08-01 2017-08-02 19:46:59.0 CYTOKINETICS INC CYTK Blum Robert I director officer (President & CEO) 500 $13.88 $6,937.50 80,467 view
S 2017-08-01 2017-08-02 19:46:59.0 CYTOKINETICS INC CYTK Blum Robert I director officer (President & CEO) 405 $13.90 $5,629.50 80,062 view
S 2017-08-01 2017-08-02 19:46:59.0 CYTOKINETICS INC CYTK Blum Robert I director officer (President & CEO) 177 $14.20 $2,513.40 79,885 view
S 2017-07-03 2017-07-06 08:04:25.0 CYTOKINETICS INC CYTK Blum Robert I director officer (President & CEO) 1,500 $12.10 $18,150.00 88,385 view
S 2017-07-03 2017-07-06 08:04:25.0 CYTOKINETICS INC CYTK Blum Robert I director officer (President & CEO) 3,091 $12.15 $37,555.60 85,294 view
S 2017-07-03 2017-07-06 08:04:25.0 CYTOKINETICS INC CYTK Blum Robert I director officer (President & CEO) 100 $12.18 $1,217.50 85,194 view
S 2017-07-03 2017-07-06 08:04:25.0 CYTOKINETICS INC CYTK Blum Robert I director officer (President & CEO) 309 $12.20 $3,769.80 84,885 view
S 2017-06-01 2017-06-02 17:54:20.0 CYTOKINETICS INC CYTK Blum Robert I director officer (President & CEO) 100 $13.40 $1,340.00 94,785 view
S 2017-06-01 2017-06-02 17:54:20.0 CYTOKINETICS INC CYTK Blum Robert I director officer (President & CEO) 468 $13.45 $6,294.60 94,317 view
S 2017-06-01 2017-06-02 17:54:20.0 CYTOKINETICS INC CYTK Blum Robert I director officer (President & CEO) 500 $13.50 $6,750.00 93,817 view
S 2017-06-01 2017-06-02 17:54:20.0 CYTOKINETICS INC CYTK Blum Robert I director officer (President & CEO) 932 $13.55 $12,628.60 92,885 view
S 2017-06-01 2017-06-02 17:54:20.0 CYTOKINETICS INC CYTK Blum Robert I director officer (President & CEO) 800 $13.60 $10,880.00 92,085 view
S 2017-06-01 2017-06-02 17:54:20.0 CYTOKINETICS INC CYTK Blum Robert I director officer (President & CEO) 700 $13.65 $9,555.00 91,385 view
S 2017-06-01 2017-06-02 17:54:20.0 CYTOKINETICS INC CYTK Blum Robert I director officer (President & CEO) 200 $13.70 $2,740.00 91,185 view
S 2017-06-01 2017-06-02 17:54:20.0 CYTOKINETICS INC CYTK Blum Robert I director officer (President & CEO) 800 $13.75 $11,000.00 90,385 view
S 2017-06-01 2017-06-02 17:54:20.0 CYTOKINETICS INC CYTK Blum Robert I director officer (President & CEO) 400 $13.80 $5,520.00 89,985 view
S 2017-06-01 2017-06-02 17:54:20.0 CYTOKINETICS INC CYTK Blum Robert I director officer (President & CEO) 100 $13.85 $1,385.00 89,885 view
S 2010-02-18 2010-02-22 19:14:39.0 CYTOKINETICS INC CYTK Blum Robert I director officer (President & CEO) 500 $3.14 $1,570.00 18,416 -5.73% view
S 2010-02-11 2010-02-12 20:03:26.0 CYTOKINETICS INC CYTK Blum Robert I director officer (President & CEO) 500 $2.96 $1,480.00 18,416 -13.51% view
S 2010-01-19 2010-01-21 15:54:09.0 CYTOKINETICS INC CYTK Blum Robert I director officer (President & CEO) 500 $3.34 $1,670.00 18,416 6.89% view
S 2010-01-05 2010-01-07 10:23:27.0 CYTOKINETICS INC CYTK Blum Robert I director officer (President & CEO) 500 $3.11 $1,555.00 18,416 3.22% view
S 2009-12-15 2009-12-17 16:17:12.0 CYTOKINETICS INC CYTK Blum Robert I director officer (President & CEO) 500 $3.05 $1,525.00 18,416 -8.85% view
S 2009-12-01 2009-12-03 16:06:33.0 CYTOKINETICS INC CYTK Blum Robert I director officer (President & CEO) 500 $3.12 $1,560.00 18,416 6.73% view
S 2009-11-24 2009-11-25 12:14:41.0 CYTOKINETICS INC CYTK Blum Robert I director officer (President & CEO) 500 $3.47 $1,735.00 18,416 18.16% view
S 2009-11-10 2009-11-12 17:41:16.0 CYTOKINETICS INC CYTK Blum Robert I director officer (President & CEO) 500 $3.24 $1,620.00 22,460 7.72% view
S 2009-10-22 2009-10-23 18:06:19.0 CYTOKINETICS INC CYTK Blum Robert I director officer (President & CEO) 500 $4.77 $2,385.00 22,460 28.72% view
S 2009-10-08 2009-10-09 20:40:50.0 CYTOKINETICS INC CYTK Blum Robert I director officer (President & CEO) 500 $4.85 $2,425.00 22,460 32.58% view
S 2009-09-24 2009-09-25 17:24:38.0 CYTOKINETICS INC CYTK Blum Robert I director officer (President & CEO) 500 $4.62 $2,310.00 22,460 1.08% view
S 2009-09-10 2009-09-11 12:06:05.0 CYTOKINETICS INC CYTK Blum Robert I director officer (President & CEO) 500 $3.21 $1,605.00 22,460 -58.88% view
S 2009-08-18 2009-08-19 17:19:16.0 CYTOKINETICS INC CYTK Blum Robert I director officer (President & CEO) 500 $2.81 $1,405.00 22,460 -42.35% view
S 2009-08-04 2009-08-06 16:56:56.0 CYTOKINETICS INC CYTK Blum Robert I director officer (President & CEO) 1,000 $3.00 $3,000.00 22,460 -7.00% view
S 2009-07-22 2009-07-24 13:17:27.0 CYTOKINETICS INC CYTK Blum Robert I director officer (President & CEO) 1,000 $2.83 $2,830.00 22,460 -3.89% view
S 2009-07-08 2009-07-10 18:01:16.0 CYTOKINETICS INC CYTK Blum Robert I director officer (President & CEO) 1,000 $2.72 $2,720.00 22,460 -10.29% view
S 2009-06-22 2009-06-23 17:59:08.0 CYTOKINETICS INC CYTK Blum Robert I director officer (President & CEO) 1,000 $2.74 $2,740.00 22,460 -2.19% view
S 2009-06-08 2009-06-10 16:28:45.0 CYTOKINETICS INC CYTK Blum Robert I director officer (President & CEO) 1,000 $2.97 $2,970.00 22,460 8.08% view
S 2009-05-22 2009-05-26 13:20:42.0 CYTOKINETICS INC CYTK Blum Robert I director officer (President & CEO) 1,000 $2.00 $2,000.00 22,460 -30.00% view
S 2009-05-18 2009-05-19 16:51:11.0 CYTOKINETICS INC CYTK Blum Robert I director officer (President & CEO) 1,000 $2.00 $2,000.00 22,460 -31.50% view
S 2009-05-06 2009-05-08 15:44:08.0 CYTOKINETICS INC CYTK Blum Robert I director officer (President & CEO) 1,000 $2.00 $2,000.00 22,460 -47.50% view
S 2009-05-01 2009-05-05 18:34:56.0 CYTOKINETICS INC CYTK Blum Robert I director officer (President & CEO) 76 $2.01 $152.77 27,060 -39.79% view
S 2009-05-01 2009-05-05 18:34:56.0 CYTOKINETICS INC CYTK Blum Robert I director officer (President & CEO) 4,600 $2.00 $9,200.00 22,460 -40.50% view
S 2009-04-24 2009-04-28 17:22:58.0 CYTOKINETICS INC CYTK Blum Robert I director officer (President & CEO) 324 $2.00 $648.00 22,460 -4.00% view
S 2009-04-21 2009-04-23 16:06:20.0 CYTOKINETICS INC CYTK Blum Robert I director officer (President & CEO) 2,800 $2.00 $5,600.00 22,460 7.50% view
S 2009-04-22 2009-04-23 16:06:20.0 CYTOKINETICS INC CYTK Blum Robert I director officer (President & CEO) 25,200 $2.00 $50,400.00 22,460 -4.00% view
S 2009-03-30 2009-04-01 13:05:30.0 CYTOKINETICS INC CYTK Blum Robert I director officer (President & CEO) 2,000 $2.00 $4,000.00 22,460 7.00% view
S 2009-03-26 2009-03-27 18:46:54.0 CYTOKINETICS INC CYTK Blum Robert I director officer (President & CEO) 20,000 $2.00 $40,000.00 22,460 0.00% view
S 2009-03-16 2009-03-18 19:09:00.0 CYTOKINETICS INC CYTK Blum Robert I director officer (President & CEO) 962 $2.00 $1,924.00 22,460 9.00% view
S 2009-03-17 2009-03-18 19:09:00.0 CYTOKINETICS INC CYTK Blum Robert I director officer (President & CEO) 4,538 $2.00 $9,076.00 22,460 10.00% view
S 2008-09-15 2008-09-17 17:43:51.0 CYTOKINETICS INC CYTK Blum Robert I director officer (President & CEO) 5,838 $5.00 $29,190.00 22,460 52.60% view
S 2008-08-29 2008-09-03 13:44:11.0 CYTOKINETICS INC CYTK Blum Robert I director officer (President & CEO) 1,300 $5.20 $6,760.00 30,836 10.96% view
S 2008-08-29 2008-09-03 13:44:11.0 CYTOKINETICS INC CYTK Blum Robert I director officer (President & CEO) 4,500 $5.25 $23,625.00 26,336 11.81% view
S 2008-08-29 2008-09-03 13:44:11.0 CYTOKINETICS INC CYTK Blum Robert I director officer (President & CEO) 2,676 $5.36 $14,343.40 23,660 13.62% view
S 2008-08-29 2008-09-03 13:44:11.0 CYTOKINETICS INC CYTK Blum Robert I director officer (President & CEO) 1,200 $5.38 $6,456.00 22,460 13.94% view
S 2008-08-15 2008-08-18 14:43:40.0 CYTOKINETICS INC CYTK Blum Robert I director officer (President & CEO) 3,889 $5.00 $19,445.00 23,871 6.00% view
S 2008-08-15 2008-08-18 14:43:40.0 CYTOKINETICS INC CYTK Blum Robert I director officer (President & CEO) 1,411 $5.00 $7,055.00 22,460 6.00% view
S 2008-07-31 2008-08-04 18:40:49.0 CYTOKINETICS INC CYTK Blum Robert I director officer (President & CEO) 13,302 $5.00 $66,510.00 31,220 -4.00% view
S 2008-07-31 2008-08-04 18:40:49.0 CYTOKINETICS INC CYTK Blum Robert I director officer (President & CEO) 7,349 $5.00 $36,745.00 23,871 -4.00% view
S 2007-12-14 2007-12-14 20:16:13.0 CYTOKINETICS INC CYTK Blum Robert I director officer (President & CEO) 6,702 $5.39 $36,123.80 31,220 18.92% view
S 2007-11-30 2007-11-30 18:11:29.0 CYTOKINETICS INC CYTK Blum Robert I director officer (President & CEO) 6,805 $5.19 $35,317.90 31,220 6.36% view
S 2007-11-15 2007-11-16 18:08:02.0 CYTOKINETICS INC CYTK Blum Robert I director officer (President & CEO) 7,009 $5.00 $35,045.00 31,220 0.40% view
S 2007-10-31 2007-11-01 12:43:39.0 CYTOKINETICS INC CYTK Blum Robert I director officer (President & CEO) 6,004 $5.00 $30,020.00 32,635 2.80% view
S 2007-10-31 2007-11-01 12:43:39.0 CYTOKINETICS INC CYTK Blum Robert I director officer (President & CEO) 700 $5.01 $3,507.00 31,935 2.99% view
S 2007-10-31 2007-11-01 12:43:39.0 CYTOKINETICS INC CYTK Blum Robert I director officer (President & CEO) 500 $5.02 $2,510.00 31,435 3.19% view
S 2007-10-31 2007-11-01 12:43:39.0 CYTOKINETICS INC CYTK Blum Robert I director officer (President & CEO) 100 $5.07 $507.00 31,335 4.14% view
S 2007-10-31 2007-11-01 12:43:39.0 CYTOKINETICS INC CYTK Blum Robert I director officer (President & CEO) 15 $5.05 $75.75 31,320 3.76% view
S 2007-10-31 2007-11-01 12:43:39.0 CYTOKINETICS INC CYTK Blum Robert I director officer (President & CEO) 100 $5.03 $503.00 31,220 3.38% view
S 2007-10-15 2007-10-17 18:29:22.0 CYTOKINETICS INC CYTK Blum Robert I director officer (President & CEO) 537 $5.98 $3,211.26 46,420 14.38% view
S 2007-10-15 2007-10-17 18:29:22.0 CYTOKINETICS INC CYTK Blum Robert I director officer (President & CEO) 1,100 $5.99 $6,589.00 45,320 14.52% view
S 2007-10-15 2007-10-17 18:29:22.0 CYTOKINETICS INC CYTK Blum Robert I director officer (President & CEO) 3,000 $6.00 $18,000.00 42,320 14.67% view
S 2007-10-15 2007-10-17 18:29:22.0 CYTOKINETICS INC CYTK Blum Robert I director officer (President & CEO) 500 $6.04 $3,020.00 41,820 15.23% view
S 2007-10-15 2007-10-17 18:29:22.0 CYTOKINETICS INC CYTK Blum Robert I director officer (President & CEO) 600 $6.05 $3,630.00 41,220 15.37% view
S 2007-10-15 2007-10-17 18:29:22.0 CYTOKINETICS INC CYTK Blum Robert I director officer (President & CEO) 500 $6.12 $3,060.00 40,720 16.34% view
S 2007-10-15 2007-10-17 18:29:22.0 CYTOKINETICS INC CYTK Blum Robert I director officer (President & CEO) 2,000 $6.15 $12,300.00 38,720 16.75% view
S 2007-09-28 2007-10-02 13:15:33.0 CYTOKINETICS INC CYTK Blum Robert I director officer (President & CEO) 9,874 $5.09 $50,258.70 38,720 -2.95% view
S 2007-08-30 2007-08-31 19:07:30.0 CYTOKINETICS INC CYTK Blum Robert I director officer (President & CEO) 163 $5.11 $832.93 38,720 -0.20% view
S 2007-08-30 2007-08-31 19:07:30.0 CYTOKINETICS INC CYTK Blum Robert I director officer (President & CEO) 6,385 $5.11 $32,627.30 38,720 -0.20% view
S 2007-08-15 2007-08-16 15:47:14.0 CYTOKINETICS INC CYTK Blum Robert I director officer (President & CEO) 6,497 $5.04 $32,744.90 38,720 3.77% view
S 2007-07-31 2007-07-31 20:44:20.0 CYTOKINETICS INC CYTK Blum Robert I director officer (President & CEO) 267 $5.00 $1,335.00 44,847 2.40% view
S 2007-07-31 2007-07-31 20:44:20.0 CYTOKINETICS INC CYTK Blum Robert I director officer (President & CEO) 6,127 $5.00 $30,635.00 38,720 2.40% view
S 2007-07-16 2007-07-18 17:28:35.0 CYTOKINETICS INC CYTK Blum Robert I director officer (President & CEO) 60 $5.47 $328.20 50,975 13.35% view
S 2007-07-16 2007-07-18 17:28:35.0 CYTOKINETICS INC CYTK Blum Robert I director officer (President & CEO) 3,000 $5.49 $16,470.00 47,975 13.66% view
S 2007-07-16 2007-07-18 17:28:35.0 CYTOKINETICS INC CYTK Blum Robert I director officer (President & CEO) 3,128 $5.48 $17,141.40 44,847 13.50% view
S 2007-06-29 2007-07-02 17:21:02.0 CYTOKINETICS INC CYTK Blum Robert I director officer (President & CEO) 5,775 $5.86 $33,867.50 50,975 13.21% view
S 2007-06-15 2007-06-15 14:42:03.0 CYTOKINETICS INC CYTK Blum Robert I director officer (President & CEO) 4,950 $6.46 $31,977.00 56,750 15.63% view
S 2007-05-29 2007-05-31 11:38:18.0 CYTOKINETICS INC CYTK Blum Robert I director officer (President & CEO) 209 $6.51 $1,360.59 64,791 3.53% view
S 2007-05-29 2007-05-31 11:38:18.0 CYTOKINETICS INC CYTK Blum Robert I director officer (President & CEO) 2,691 $6.50 $17,491.50 62,100 3.38% view
S 2007-05-29 2007-05-31 11:38:18.0 CYTOKINETICS INC CYTK Blum Robert I director officer (President & CEO) 400 $6.50 $2,600.04 61,700 3.39% view
S 2006-12-15 2006-12-19 18:36:03.0 CYTOKINETICS INC CYTK Blum Robert I officer (President) 5,000 $6.94 $34,700.00 65,000 -20.32% view
S 2006-11-30 2006-12-01 19:05:18.0 CYTOKINETICS INC CYTK Blum Robert I officer (President) 2,500 $7.30 $18,244.20 67,500 -2.50% view
S 2006-11-30 2006-12-01 19:05:18.0 CYTOKINETICS INC CYTK Blum Robert I officer (President) 2,500 $7.29 $18,224.50 65,000 -2.61% view
S 2006-11-15 2006-11-16 20:03:13.0 CYTOKINETICS INC CYTK Blum Robert I officer (President) 5,000 $7.62 $38,094.00 65,000 10.35% view
S 2006-10-30 2006-10-31 16:36:19.0 CYTOKINETICS INC CYTK Blum Robert I officer (President) 2,500 $7.02 $17,542.80 67,500 -7.31% view
S 2006-10-30 2006-10-31 16:36:19.0 CYTOKINETICS INC CYTK Blum Robert I officer (President) 2,500 $7.01 $17,532.20 65,000 -7.37% view
S 2006-10-16 2006-10-18 19:38:33.0 CYTOKINETICS INC CYTK Blum Robert I officer (President) 2,500 $6.69 $16,725.00 67,500 -12.86% view
S 2006-10-16 2006-10-18 19:38:33.0 CYTOKINETICS INC CYTK Blum Robert I officer (President) 2,500 $6.81 $17,022.50 65,000 -10.88% view
S 2006-10-02 2006-10-03 20:36:16.0 CYTOKINETICS INC CYTK Blum Robert I officer (President) 2,500 $6.36 $15,896.00 67,500 -11.82% view
S 2006-10-02 2006-10-03 20:36:16.0 CYTOKINETICS INC CYTK Blum Robert I officer (President) 2,500 $6.40 $15,988.80 65,000 -11.17% view
S 2006-09-15 2006-09-19 16:09:08.0 CYTOKINETICS INC CYTK Blum Robert I officer (President) 2,855 $6.75 $19,271.20 67,145 -1.63% view
S 2006-09-15 2006-09-19 16:09:08.0 CYTOKINETICS INC CYTK Blum Robert I officer (President) 100 $6.76 $676.00 67,045 -1.48% view
S 2006-09-15 2006-09-19 16:09:08.0 CYTOKINETICS INC CYTK Blum Robert I officer (President) 543 $6.73 $3,654.39 66,502 -1.93% view
S 2006-09-15 2006-09-19 16:09:08.0 CYTOKINETICS INC CYTK Blum Robert I officer (President) 402 $6.79 $2,729.58 66,100 -1.03% view
S 2006-09-15 2006-09-19 16:09:08.0 CYTOKINETICS INC CYTK Blum Robert I officer (President) 1,100 $6.80 $7,480.00 65,000 -0.88% view
S 2006-08-30 2006-09-01 17:10:55.0 CYTOKINETICS INC CYTK Blum Robert I officer (President) 5,000 $6.44 $32,200.00 65,000 0.16% view
S 2006-08-15 2006-08-17 17:23:12.0 CYTOKINETICS INC CYTK Blum Robert I officer (President) 4,800 $5.44 $26,112.00 65,199 -25.92% view
S 2006-08-15 2006-08-17 17:23:12.0 CYTOKINETICS INC CYTK Blum Robert I officer (President) 100 $5.47 $547.00 65,099 -25.23% view
S 2006-08-15 2006-08-17 17:23:12.0 CYTOKINETICS INC CYTK Blum Robert I officer (President) 99 $5.45 $539.55 65,000 -25.69% view
S 2006-07-31 2006-08-02 16:05:11.0 CYTOKINETICS INC CYTK Blum Robert I officer (President) 4,999 $5.63 $28,126.90 65,000 -21.21% view
S 2006-07-17 2006-07-19 16:52:20.0 CYTOKINETICS INC CYTK Blum Robert I officer (President) 346 $5.46 $1,889.16 69,652 -7.14% view
S 2006-07-17 2006-07-19 16:52:20.0 CYTOKINETICS INC CYTK Blum Robert I officer (President) 1,000 $5.47 $5,470.00 68,652 -6.95% view
S 2006-07-17 2006-07-19 16:52:20.0 CYTOKINETICS INC CYTK Blum Robert I officer (President) 200 $5.48 $1,096.00 68,452 -6.75% view
S 2006-07-17 2006-07-19 16:52:20.0 CYTOKINETICS INC CYTK Blum Robert I officer (President) 700 $5.49 $3,843.00 67,752 -6.56% view
S 2006-07-17 2006-07-19 16:52:20.0 CYTOKINETICS INC CYTK Blum Robert I officer (President) 752 $5.50 $4,136.00 67,000 -6.36% view
S 2006-07-17 2006-07-19 16:52:20.0 CYTOKINETICS INC CYTK Blum Robert I officer (President) 1,327 $5.51 $7,311.77 65,673 -6.17% view
S 2006-07-17 2006-07-19 16:52:20.0 CYTOKINETICS INC CYTK Blum Robert I officer (President) 100 $5.52 $552.00 65,573 -5.98% view
S 2006-07-17 2006-07-19 16:52:20.0 CYTOKINETICS INC CYTK Blum Robert I officer (President) 500 $5.55 $2,775.00 65,073 -5.41% view
S 2006-07-17 2006-07-19 16:52:20.0 CYTOKINETICS INC CYTK Blum Robert I officer (President) 27 $5.58 $150.66 65,046 -4.84% view
S 2006-07-17 2006-07-19 16:52:20.0 CYTOKINETICS INC CYTK Blum Robert I officer (President) 46 $5.59 $257.14 65,000 -4.65% view
S 2006-06-30 2006-07-05 13:29:23.0 CYTOKINETICS INC CYTK Blum Robert I officer (President) 4,995 $6.61 $33,016.90 65,000 10.74% view
S 2006-06-15 2006-06-19 14:00:24.0 CYTOKINETICS INC CYTK Blum Robert I officer (President) 4,990 $6.93 $34,580.70 65,000 16.45% view
S 2006-05-30 2006-06-01 13:09:01.0 CYTOKINETICS INC CYTK Blum Robert I officer (President) 4,980 $7.06 $35,158.80 65,000 10.91% view
S 2006-05-15 2006-05-17 19:16:37.0 CYTOKINETICS INC CYTK Blum Robert I officer (President) 1,000 $7.03 $7,030.00 68,961 -0.28% view
S 2006-05-15 2006-05-17 19:16:37.0 CYTOKINETICS INC CYTK Blum Robert I officer (President) 800 $6.96 $5,568.00 68,161 -1.29% view
S 2006-05-15 2006-05-17 19:16:37.0 CYTOKINETICS INC CYTK Blum Robert I officer (President) 400 $6.94 $2,777.00 67,761 -1.55% view
S 2006-05-15 2006-05-17 19:16:37.0 CYTOKINETICS INC CYTK Blum Robert I officer (President) 1,000 $6.98 $6,980.00 66,761 -1.00% view
S 2006-05-15 2006-05-17 19:16:37.0 CYTOKINETICS INC CYTK Blum Robert I officer (President) 600 $7.03 $4,218.00 66,161 -0.28% view
S 2006-05-15 2006-05-17 19:16:37.0 CYTOKINETICS INC CYTK Blum Robert I officer (President) 1,161 $7.00 $8,123.17 65,000 -0.76% view
S 2006-05-01 2006-05-01 19:41:19.0 CYTOKINETICS INC CYTK Blum Robert I officer (EVP, Corp. Development & CBO) 101 $7.20 $727.20 69,821 1.25% view
S 2006-05-01 2006-05-01 19:41:19.0 CYTOKINETICS INC CYTK Blum Robert I officer (EVP, Corp. Development & CBO) 100 $7.22 $722.00 69,721 1.52% view
S 2006-05-01 2006-05-01 19:41:19.0 CYTOKINETICS INC CYTK Blum Robert I officer (EVP, Corp. Development & CBO) 200 $7.15 $1,430.00 69,521 0.56% view
S 2006-05-01 2006-05-01 19:41:19.0 CYTOKINETICS INC CYTK Blum Robert I officer (EVP, Corp. Development & CBO) 4,521 $7.10 $32,099.10 65,000 -0.14% view
S 2006-04-17 2006-04-17 19:20:20.0 CYTOKINETICS INC CYTK Blum Robert I officer (EVP, Corp. Development & CBO) 4,844 $7.34 $35,555.00 65,000 7.77% view
S 2006-03-30 2006-03-31 19:08:58.0 CYTOKINETICS INC CYTK Blum Robert I officer (EVP, Corp. Development & CBO) 4,688 $7.06 $33,097.30 65,000 -2.69% view
S 2006-03-15 2006-03-16 20:27:56.0 CYTOKINETICS INC CYTK Blum Robert I officer (EVP, Corp. Development & CBO) 4,375 $7.01 $30,668.80 65,000 -6.85% view
S 2006-02-28 2006-03-01 16:41:15.0 CYTOKINETICS INC CYTK Blum Robert I officer (EVP, Corp. Development & CBO) 3,750 $7.10 $26,625.00 65,000 -1.41% view
S 2006-02-15 2006-02-16 19:58:40.0 CYTOKINETICS INC CYTK Blum Robert I officer (EVP, Corp. Development & CBO) 2,500 $7.14 $17,850.00 65,000 1.40% view
S 2005-11-14 2005-11-15 16:12:45.0 CYTOKINETICS INC CYTK Blum Robert I officer (EVP, Corp. Development & CBO) 900 $8.33 $7,497.00 65,000 13.45% view
S 2005-11-14 2005-11-15 16:12:45.0 CYTOKINETICS INC CYTK Blum Robert I officer (EVP, Corp. Development & CBO) 1,000 $8.32 $8,320.00 65,000 13.34% view
S 2005-11-14 2005-11-15 16:12:45.0 CYTOKINETICS INC CYTK Blum Robert I officer (EVP, Corp. Development & CBO) 900 $8.31 $7,479.00 65,000 13.24% view
S 2005-11-14 2005-11-15 16:12:45.0 CYTOKINETICS INC CYTK Blum Robert I officer (EVP, Corp. Development & CBO) 3,000 $8.30 $24,900.00 65,000 13.13% view
S 2005-11-11 2005-11-15 16:12:45.0 CYTOKINETICS INC CYTK Blum Robert I officer (EVP, Corp. Development & CBO) 301 $8.27 $2,489.27 65,000 3.26% view
S 2005-11-11 2005-11-15 16:12:45.0 CYTOKINETICS INC CYTK Blum Robert I officer (EVP, Corp. Development & CBO) 1,500 $8.49 $12,735.00 65,000 5.77% view
S 2005-11-11 2005-11-15 16:12:45.0 CYTOKINETICS INC CYTK Blum Robert I officer (EVP, Corp. Development & CBO) 5,900 $8.31 $49,029.00 65,000 3.73% view
S 2005-11-11 2005-11-15 16:12:45.0 CYTOKINETICS INC CYTK Blum Robert I officer (EVP, Corp. Development & CBO) 1,500 $8.40 $12,600.00 65,000 4.76% view
S 2005-11-11 2005-11-15 16:12:45.0 CYTOKINETICS INC CYTK Blum Robert I officer (EVP, Corp. Development & CBO) 800 $8.37 $6,696.00 65,000 4.42% view
S 2005-11-11 2005-11-15 16:12:45.0 CYTOKINETICS INC CYTK Blum Robert I officer (EVP, Corp. Development & CBO) 1,980 $8.26 $16,354.80 65,000 3.15% view
S 2005-11-11 2005-11-15 16:12:45.0 CYTOKINETICS INC CYTK Blum Robert I officer (EVP, Corp. Development & CBO) 296 $8.23 $2,436.08 65,000 2.79% view
S 2005-11-11 2005-11-15 16:12:45.0 CYTOKINETICS INC CYTK Blum Robert I officer (EVP, Corp. Development & CBO) 1,526 $8.28 $12,635.30 65,000 3.38% view
S 2005-11-11 2005-11-15 16:12:45.0 CYTOKINETICS INC CYTK Blum Robert I officer (EVP, Corp. Development & CBO) 2,300 $8.46 $19,458.00 65,000 5.44% view
S 2005-11-11 2005-11-15 16:12:45.0 CYTOKINETICS INC CYTK Blum Robert I officer (EVP, Corp. Development & CBO) 300 $8.45 $2,535.00 64,700 5.33% view
S 2005-11-11 2005-11-15 16:12:45.0 CYTOKINETICS INC CYTK Blum Robert I officer (EVP, Corp. Development & CBO) 997 $8.25 $8,225.25 64,700 3.03% view
S 2005-11-11 2005-11-15 16:12:45.0 CYTOKINETICS INC CYTK Blum Robert I officer (EVP, Corp. Development & CBO) 100 $8.24 $824.00 64,700 2.91% view
S 2005-11-14 2005-11-15 16:12:45.0 CYTOKINETICS INC CYTK Blum Robert I officer (EVP, Corp. Development & CBO) 700 $8.35 $5,845.00 65,000 13.65% view
S 2005-11-14 2005-11-15 16:12:45.0 CYTOKINETICS INC CYTK Blum Robert I officer (EVP, Corp. Development & CBO) 200 $8.41 $1,682.00 65,000 14.27% view
S 2005-11-14 2005-11-15 16:12:45.0 CYTOKINETICS INC CYTK Blum Robert I officer (EVP, Corp. Development & CBO) 800 $8.34 $6,672.00 65,000 13.55% view
S 2005-11-07 2005-11-09 17:47:47.0 CYTOKINETICS INC CYTK Blum Robert I officer (EVP, Corp. Development & CBO) 2,500 $8.65 $21,625.00 65,000 7.17% view
S 2005-11-07 2005-11-09 17:47:47.0 CYTOKINETICS INC CYTK Blum Robert I officer (EVP, Corp. Development & CBO) 2,400 $8.76 $21,024.00 65,000 8.33% view
S 2005-11-07 2005-11-09 17:47:47.0 CYTOKINETICS INC CYTK Blum Robert I officer (EVP, Corp. Development & CBO) 100 $8.75 $875.00 65,000 8.23% view
S 2005-11-08 2005-11-09 17:47:47.0 CYTOKINETICS INC CYTK Blum Robert I officer (EVP, Corp. Development & CBO) 5,000 $8.47 $42,350.00 65,000 6.14% view
S 2005-02-25 2005-02-28 18:09:32.0 CYTOKINETICS INC CYTK Blum Robert I officer (EVP, Corp. Development & CBO) 5,000 $9.66 $48,323.00 68,750 26.12% view
S 2005-02-24 2005-02-28 18:07:57.0 CYTOKINETICS INC CYTK Blum Robert I officer (EVP, Corp. Development & CBO) 5,000 $9.25 $46,250.00 73,750 22.81% view
S 2005-02-14 2005-02-15 17:03:09.0 CYTOKINETICS INC CYTK Blum Robert I officer (EVP, Corp. Development & CBO) 10,000 $9.50 $95,000.00 78,750 8.63% view
* Filed by insider as open market transaction, but marked as private transaction by insidercow's proprietary method